地図

経路データ

SID SEASON NUMBER BASIN SUBBASIN NAME ISO_TIME NATURE LAT LON WMO_WIND WMO_PRES WMO_AGENCY TRACK_TYPE DIST2LAND LANDFALL IFLAG USA_AGENCY USA_ATCF_ID USA_LAT USA_LON USA_RECORD USA_STATUS USA_WIND USA_PRES USA_SSHS USA_R34_NE USA_R34_SE USA_R34_SW USA_R34_NW USA_R50_NE USA_R50_SE USA_R50_SW USA_R50_NW USA_R64_NE USA_R64_SE USA_R64_SW USA_R64_NW USA_POCI USA_ROCI USA_RMW USA_EYE TOKYO_LAT TOKYO_LON TOKYO_GRADE TOKYO_WIND TOKYO_PRES TOKYO_R50_DIR TOKYO_R50_LONG TOKYO_R50_SHORT TOKYO_R30_DIR TOKYO_R30_LONG TOKYO_R30_SHORT TOKYO_LAND CMA_LAT CMA_LON CMA_CAT CMA_WIND CMA_PRES HKO_LAT HKO_LON HKO_CAT HKO_WIND HKO_PRES NEWDELHI_LAT NEWDELHI_LON NEWDELHI_GRADE NEWDELHI_WIND NEWDELHI_PRES NEWDELHI_CI NEWDELHI_DP NEWDELHI_POCI REUNION_LAT REUNION_LON REUNION_TYPE REUNION_WIND REUNION_PRES REUNION_TNUM REUNION_CI REUNION_RMW REUNION_R34_NE REUNION_R34_SE REUNION_R34_SW REUNION_R34_NW REUNION_R50_NE REUNION_R50_SE REUNION_R50_SW REUNION_R50_NW REUNION_R64_NE REUNION_R64_SE REUNION_R64_SW REUNION_R64_NW BOM_LAT BOM_LON BOM_TYPE BOM_WIND BOM_PRES BOM_TNUM BOM_CI BOM_RMW BOM_R34_NE BOM_R34_SE BOM_R34_SW BOM_R34_NW BOM_R50_NE BOM_R50_SE BOM_R50_SW BOM_R50_NW BOM_R64_NE BOM_R64_SE BOM_R64_SW BOM_R64_NW BOM_ROCI BOM_POCI BOM_EYE BOM_POS_METHOD BOM_PRES_METHOD NADI_LAT NADI_LON NADI_CAT NADI_WIND NADI_PRES WELLINGTON_LAT WELLINGTON_LON WELLINGTON_WIND WELLINGTON_PRES DS824_LAT DS824_LON DS824_STAGE DS824_WIND DS824_PRES TD9636_LAT TD9636_LON TD9636_STAGE TD9636_WIND TD9636_PRES TD9635_LAT TD9635_LON TD9635_WIND TD9635_PRES TD9635_ROCI NEUMANN_LAT NEUMANN_LON NEUMANN_CLASS NEUMANN_WIND NEUMANN_PRES MLC_LAT MLC_LON MLC_CLASS MLC_WIND MLC_PRES USA_GUST BOM_GUST BOM_GUST_PER REUNION_GUST REUNION_GUST_PER USA_SEAHGT USA_SEARAD_NE USA_SEARAD_SE USA_SEARAD_SW USA_SEARAD_NW STORM_SPEED STORM_DIR
1912362N20123 1912 71 WP MM NOT_NAMED 1912-12-27 09:00:00 NR 19.7000 122.600 main 148 148 __________O___ -1 19.7000 122.600 2 8 319
1912362N20123 1912 71 WP MM NOT_NAMED 1912-12-27 12:00:00 NR 19.9894 122.337 main 178 178 __________P___ -1 19.9894 122.337 2 8 333
1912362N20123 1912 71 WP MM NOT_NAMED 1912-12-27 15:00:00 NR 20.4126 122.218 main 215 176 __________P___ -1 20.4126 122.218 2 11 2
1912362N20123 1912 71 WP MM NOT_NAMED 1912-12-27 18:00:00 NR 21.1045 122.388 main 179 173 __________P___ -1 21.1045 122.388 2 19 22
1912362N20123 1912 71 WP MM NOT_NAMED 1912-12-27 21:00:00 NR 22.2000 123.000 main 192 186 __________O___ -1 22.2000 123.000 2 31 32
1912362N20123 1912 71 WP MM NOT_NAMED 1912-12-28 00:00:00 NR 23.7667 124.171 main 245 242 __________P___ -1 23.7667 124.171 2 43 37
1912362N20123 1912 71 WP MM NOT_NAMED 1912-12-28 03:00:00 NR 25.6111 125.822 main 387 387 __________P___ -1 25.6111 125.822 2 50 42
1912362N20123 1912 71 WP MM NOT_NAMED 1912-12-28 06:00:00 NR 27.4733 127.818 main 473 236 __________P___ -1 27.4733 127.818 2 51 47
1912362N20123 1912 71 WP MM NOT_NAMED 1912-12-28 09:00:00 NR 29.1000 130.000 main 222 135 __________O___ -1 29.1000 130.000 2 47 54
1912362N20123 1912 71 WP MM NOT_NAMED 1912-12-28 12:00:00 NR 30.2657 132.203 main 144 144 __________P___ -1 30.2657 132.203 2 44 62
1912362N20123 1912 71 WP MM NOT_NAMED 1912-12-28 15:00:00 NR 31.1506 134.516 main 218 195 __________P___ -1 31.1506 134.516 2 42 69
1912362N20123 1912 71 WP MM NOT_NAMED 1912-12-28 18:00:00 NR 31.7831 136.797 main 201 201 __________P___ -1 31.7831 136.797 2 39 74
1912362N20123 1912 71 WP MM NOT_NAMED 1912-12-28 21:00:00 NR 32.2000 138.900 main 267 259 __________O___ -1 32.2000 138.900 2 33 77
1912362N20123 1912 71 WP MM NOT_NAMED 1912-12-29 00:00:00 NR 32.5106 140.659 main 277 275 __________P___ -1 32.5106 140.659 2 28 81
1912362N20123 1912 71 WP MM NOT_NAMED 1912-12-29 03:00:00 NR 32.6453 142.208 main 332 332 __________P___ -1 32.6453 142.208 2 25 87
1912362N20123 1912 71 WP MM NOT_NAMED 1912-12-29 06:00:00 NR 32.6585 143.627 main 405 405 __________P___ -1 32.6585 143.627 2 23 91
1912362N20123 1912 71 WP MM NOT_NAMED 1912-12-29 09:00:00 NR 32.6000 145.000 main 510 510 __________O___ -1 32.6000 145.000 2 23 94
1912362N20123 1912 71 WP MM NOT_NAMED 1912-12-29 12:00:00 NR 32.5087 146.395 main 618 618 __________P___ -1 32.5087 146.395 2 24 95
1912362N20123 1912 71 WP MM NOT_NAMED 1912-12-29 15:00:00 NR 32.3934 147.818 main 733 733 __________P___ -1 32.3934 147.818 2 24 96
1912362N20123 1912 71 WP MM NOT_NAMED 1912-12-29 18:00:00 NR 32.2563 149.257 main 860 860 __________P___ -1 32.2563 149.257 2 25 97
1912362N20123 1912 71 WP MM NOT_NAMED 1912-12-29 21:00:00 NR 32.1000 150.700 main 987 __________O___ -1 32.1000 150.700 2 25 97

デジタル台風データ・検索

IBTrACS Databaseについて

本データベースは、米国NOAAが公開する1842年以降の世界の熱帯低気圧のベストトラックデータアーカイブInternational Best Track Archive for Climate Stewardship (IBTrACS)を、ウェブで閲覧しやすい形式に変換したものです。

最終更新日:2021-10-21